sensor_id;sensor_type;location;lat;lon;timestamp;P1;durP1;ratioP1;P2;durP2;ratioP2
46941;SDS011;32676;52.630;4.896;2023-11-21T00:00:37;17.27;;;5.03;;
46941;SDS011;32676;52.630;4.896;2023-11-21T00:03:03;18.65;;;5.20;;
46941;SDS011;32676;52.630;4.896;2023-11-21T00:05:30;28.98;;;5.68;;
46941;SDS011;32676;52.630;4.896;2023-11-21T00:07:56;16.70;;;4.60;;
46941;SDS011;32676;52.630;4.896;2023-11-21T00:10:23;14.52;;;4.80;;
46941;SDS011;32676;52.630;4.896;2023-11-21T00:12:49;22.55;;;6.30;;
46941;SDS011;32676;52.630;4.896;2023-11-21T00:15:16;29.10;;;5.53;;
46941;SDS011;32676;52.630;4.896;2023-11-21T00:17:45;19.23;;;6.10;;
46941;SDS011;32676;52.630;4.896;2023-11-21T00:20:12;14.95;;;4.15;;
46941;SDS011;32676;52.630;4.896;2023-11-21T00:22:38;14.95;;;5.15;;
46941;SDS011;32676;52.630;4.896;2023-11-21T00:25:06;16.83;;;4.80;;
46941;SDS011;32676;52.630;4.896;2023-11-21T00:27:34;18.10;;;4.90;;
46941;SDS011;32676;52.630;4.896;2023-11-21T00:30:01;18.73;;;5.07;;
46941;SDS011;32676;52.630;4.896;2023-11-21T00:32:29;18.85;;;4.47;;
46941;SDS011;32676;52.630;4.896;2023-11-21T00:34:57;20.50;;;4.60;;
46941;SDS011;32676;52.630;4.896;2023-11-21T00:37:24;14.52;;;4.10;;
46941;SDS011;32676;52.630;4.896;2023-11-21T00:39:50;18.13;;;4.53;;
46941;SDS011;32676;52.630;4.896;2023-11-21T00:42:17;18.58;;;4.22;;
46941;SDS011;32676;52.630;4.896;2023-11-21T00:44:43;14.05;;;4.60;;
46941;SDS011;32676;52.630;4.896;2023-11-21T00:47:11;16.27;;;4.82;;
46941;SDS011;32676;52.630;4.896;2023-11-21T00:49:37;21.52;;;5.90;;
46941;SDS011;32676;52.630;4.896;2023-11-21T00:52:06;16.40;;;3.53;;
46941;SDS011;32676;52.630;4.896;2023-11-21T00:54:33;17.33;;;5.85;;
46941;SDS011;32676;52.630;4.896;2023-11-21T00:56:59;14.88;;;3.33;;
46941;SDS011;32676;52.630;4.896;2023-11-21T00:59:26;14.77;;;3.65;;
46941;SDS011;32676;52.630;4.896;2023-11-21T01:01:52;15.70;;;4.93;;
46941;SDS011;32676;52.630;4.896;2023-11-21T01:04:19;16.95;;;4.43;;
46941;SDS011;32676;52.630;4.896;2023-11-21T01:06:45;30.20;;;5.85;;
46941;SDS011;32676;52.630;4.896;2023-11-21T01:09:13;17.10;;;3.95;;
46941;SDS011;32676;52.630;4.896;2023-11-21T01:11:40;12.30;;;4.32;;
46941;SDS011;32676;52.630;4.896;2023-11-21T01:14:06;12.45;;;5.03;;
46941;SDS011;32676;52.630;4.896;2023-11-21T01:16:33;19.17;;;4.68;;
46941;SDS011;32676;52.630;4.896;2023-11-21T01:19:00;21.90;;;4.32;;
46941;SDS011;32676;52.630;4.896;2023-11-21T01:21:27;16.38;;;4.70;;
46941;SDS011;32676;52.630;4.896;2023-11-21T01:23:54;20.77;;;5.95;;
46941;SDS011;32676;52.630;4.896;2023-11-21T01:26:22;20.67;;;5.82;;
46941;SDS011;32676;52.630;4.896;2023-11-21T01:28:48;13.27;;;4.15;;
46941;SDS011;32676;52.630;4.896;2023-11-21T01:31:15;20.73;;;4.43;;
46941;SDS011;32676;52.630;4.896;2023-11-21T01:33:41;21.73;;;5.35;;
46941;SDS011;32676;52.630;4.896;2023-11-21T01:36:08;12.50;;;4.30;;
46941;SDS011;32676;52.630;4.896;2023-11-21T01:38:35;14.93;;;4.22;;
46941;SDS011;32676;52.630;4.896;2023-11-21T01:41:01;14.57;;;5.35;;
46941;SDS011;32676;52.630;4.896;2023-11-21T01:43:30;15.15;;;4.85;;
46941;SDS011;32676;52.630;4.896;2023-11-21T01:45:56;13.35;;;3.78;;
46941;SDS011;32676;52.630;4.896;2023-11-21T01:48:23;22.58;;;4.70;;
46941;SDS011;32676;52.630;4.896;2023-11-21T01:50:50;18.50;;;4.63;;
46941;SDS011;32676;52.630;4.896;2023-11-21T01:53:17;14.43;;;4.10;;
46941;SDS011;32676;52.630;4.896;2023-11-21T01:55:44;16.55;;;3.88;;
46941;SDS011;32676;52.630;4.896;2023-11-21T01:58:11;15.10;;;3.97;;
46941;SDS011;32676;52.630;4.896;2023-11-21T02:00:40;11.88;;;4.07;;
46941;SDS011;32676;52.630;4.896;2023-11-21T02:03:06;11.95;;;3.88;;
46941;SDS011;32676;52.630;4.896;2023-11-21T02:05:34;14.95;;;3.95;;
46941;SDS011;32676;52.630;4.896;2023-11-21T02:08:00;19.27;;;3.83;;
46941;SDS011;32676;52.630;4.896;2023-11-21T02:10:28;25.52;;;4.95;;
46941;SDS011;32676;52.630;4.896;2023-11-21T02:12:56;17.23;;;3.88;;
46941;SDS011;32676;52.630;4.896;2023-11-21T02:15:22;13.68;;;3.30;;
46941;SDS011;32676;52.630;4.896;2023-11-21T02:17:53;12.55;;;3.55;;
46941;SDS011;32676;52.630;4.896;2023-11-21T02:20:20;12.43;;;3.85;;
46941;SDS011;32676;52.630;4.896;2023-11-21T02:22:50;23.05;;;4.95;;
46941;SDS011;32676;52.630;4.896;2023-11-21T02:25:22;9.50;;;3.42;;
46941;SDS011;32676;52.630;4.896;2023-11-21T02:27:49;9.80;;;4.32;;
46941;SDS011;32676;52.630;4.896;2023-11-21T02:30:16;9.13;;;2.95;;
46941;SDS011;32676;52.630;4.896;2023-11-21T02:32:43;7.63;;;2.13;;
46941;SDS011;32676;52.630;4.896;2023-11-21T02:35:11;5.90;;;1.55;;
46941;SDS011;32676;52.630;4.896;2023-11-21T02:37:37;8.48;;;1.90;;
46941;SDS011;32676;52.630;4.896;2023-11-21T02:40:08;8.27;;;1.33;;
46941;SDS011;32676;52.630;4.896;2023-11-21T02:42:37;5.70;;;1.30;;
46941;SDS011;32676;52.630;4.896;2023-11-21T02:45:04;7.75;;;1.35;;
46941;SDS011;32676;52.630;4.896;2023-11-21T02:47:32;6.47;;;1.80;;
46941;SDS011;32676;52.630;4.896;2023-11-21T02:49:58;5.05;;;1.40;;
46941;SDS011;32676;52.630;4.896;2023-11-21T02:52:25;5.03;;;1.40;;
46941;SDS011;32676;52.630;4.896;2023-11-21T02:54:52;7.25;;;1.50;;
46941;SDS011;32676;52.630;4.896;2023-11-21T02:57:19;9.50;;;1.52;;
46941;SDS011;32676;52.630;4.896;2023-11-21T02:59:46;4.75;;;1.10;;
46941;SDS011;32676;52.630;4.896;2023-11-21T03:02:12;9.55;;;1.75;;
46941;SDS011;32676;52.630;4.896;2023-11-21T03:04:39;6.25;;;1.55;;
46941;SDS011;32676;52.630;4.896;2023-11-21T03:07:05;4.25;;;1.80;;
46941;SDS011;32676;52.630;4.896;2023-11-21T03:09:31;3.47;;;1.08;;
46941;SDS011;32676;52.630;4.896;2023-11-21T03:11:58;6.50;;;1.30;;
46941;SDS011;32676;52.630;4.896;2023-11-21T03:14:26;3.58;;;1.58;;
46941;SDS011;32676;52.630;4.896;2023-11-21T03:16:52;6.05;;;1.65;;
46941;SDS011;32676;52.630;4.896;2023-11-21T03:19:18;6.72;;;1.92;;
46941;SDS011;32676;52.630;4.896;2023-11-21T03:21:45;6.22;;;1.30;;
46941;SDS011;32676;52.630;4.896;2023-11-21T03:24:11;8.85;;;2.10;;
46941;SDS011;32676;52.630;4.896;2023-11-21T03:26:38;5.03;;;2.30;;
46941;SDS011;32676;52.630;4.896;2023-11-21T03:29:04;6.38;;;1.38;;
46941;SDS011;32676;52.630;4.896;2023-11-21T03:31:32;5.18;;;1.52;;
46941;SDS011;32676;52.630;4.896;2023-11-21T03:33:58;6.88;;;1.48;;
46941;SDS011;32676;52.630;4.896;2023-11-21T03:36:25;3.42;;;1.40;;
46941;SDS011;32676;52.630;4.896;2023-11-21T03:38:51;3.85;;;1.55;;
46941;SDS011;32676;52.630;4.896;2023-11-21T03:41:18;5.40;;;1.70;;
46941;SDS011;32676;52.630;4.896;2023-11-21T03:43:45;2.85;;;1.33;;
46941;SDS011;32676;52.630;4.896;2023-11-21T03:46:11;6.85;;;1.88;;
46941;SDS011;32676;52.630;4.896;2023-11-21T03:48:39;7.72;;;1.90;;
46941;SDS011;32676;52.630;4.896;2023-11-21T03:51:07;6.32;;;3.40;;
46941;SDS011;32676;52.630;4.896;2023-11-21T03:53:33;9.88;;;1.88;;
46941;SDS011;32676;52.630;4.896;2023-11-21T03:56:01;8.35;;;1.95;;
46941;SDS011;32676;52.630;4.896;2023-11-21T03:58:28;12.73;;;2.35;;
46941;SDS011;32676;52.630;4.896;2023-11-21T04:00:55;6.28;;;1.70;;
46941;SDS011;32676;52.630;4.896;2023-11-21T04:03:21;6.95;;;2.00;;
46941;SDS011;32676;52.630;4.896;2023-11-21T04:05:49;9.32;;;2.22;;
46941;SDS011;32676;52.630;4.896;2023-11-21T04:08:16;8.23;;;2.85;;
46941;SDS011;32676;52.630;4.896;2023-11-21T04:10:42;5.22;;;1.92;;
46941;SDS011;32676;52.630;4.896;2023-11-21T04:13:08;7.60;;;2.80;;
46941;SDS011;32676;52.630;4.896;2023-11-21T04:15:35;7.55;;;1.65;;
46941;SDS011;32676;52.630;4.896;2023-11-21T04:18:02;10.95;;;2.63;;
46941;SDS011;32676;52.630;4.896;2023-11-21T04:20:29;9.98;;;2.50;;
46941;SDS011;32676;52.630;4.896;2023-11-21T04:22:56;10.25;;;2.10;;
46941;SDS011;32676;52.630;4.896;2023-11-21T04:25:23;13.43;;;2.92;;
46941;SDS011;32676;52.630;4.896;2023-11-21T04:27:49;13.98;;;2.22;;
46941;SDS011;32676;52.630;4.896;2023-11-21T04:30:16;18.98;;;2.60;;
46941;SDS011;32676;52.630;4.896;2023-11-21T04:32:42;8.00;;;1.80;;
46941;SDS011;32676;52.630;4.896;2023-11-21T04:35:09;5.30;;;1.77;;
46941;SDS011;32676;52.630;4.896;2023-11-21T04:37:35;9.55;;;2.28;;
46941;SDS011;32676;52.630;4.896;2023-11-21T04:40:04;16.17;;;2.50;;
46941;SDS011;32676;52.630;4.896;2023-11-21T04:42:33;10.60;;;3.30;;
46941;SDS011;32676;52.630;4.896;2023-11-21T04:45:00;22.20;;;2.33;;
46941;SDS011;32676;52.630;4.896;2023-11-21T04:47:26;12.82;;;3.28;;
46941;SDS011;32676;52.630;4.896;2023-11-21T04:49:52;12.23;;;2.75;;
46941;SDS011;32676;52.630;4.896;2023-11-21T04:52:19;22.63;;;4.22;;
46941;SDS011;32676;52.630;4.896;2023-11-21T04:54:45;14.52;;;3.85;;
46941;SDS011;32676;52.630;4.896;2023-11-21T04:57:14;5.82;;;2.40;;
46941;SDS011;32676;52.630;4.896;2023-11-21T04:59:43;11.30;;;3.38;;
46941;SDS011;32676;52.630;4.896;2023-11-21T05:02:09;17.73;;;6.18;;
46941;SDS011;32676;52.630;4.896;2023-11-21T05:04:36;22.77;;;9.45;;
46941;SDS011;32676;52.630;4.896;2023-11-21T05:07:02;36.80;;;18.33;;
46941;SDS011;32676;52.630;4.896;2023-11-21T05:09:29;31.15;;;11.23;;
46941;SDS011;32676;52.630;4.896;2023-11-21T05:11:57;27.25;;;12.82;;
46941;SDS011;32676;52.630;4.896;2023-11-21T05:14:26;33.70;;;16.70;;
46941;SDS011;32676;52.630;4.896;2023-11-21T05:16:52;24.30;;;8.23;;
46941;SDS011;32676;52.630;4.896;2023-11-21T05:19:19;18.63;;;7.63;;
46941;SDS011;32676;52.630;4.896;2023-11-21T05:21:46;13.60;;;5.28;;
46941;SDS011;32676;52.630;4.896;2023-11-21T05:24:12;20.00;;;5.18;;
46941;SDS011;32676;52.630;4.896;2023-11-21T05:26:39;12.38;;;3.17;;
46941;SDS011;32676;52.630;4.896;2023-11-21T05:29:05;14.82;;;5.07;;
46941;SDS011;32676;52.630;4.896;2023-11-21T05:31:33;21.02;;;8.27;;
46941;SDS011;32676;52.630;4.896;2023-11-21T05:33:59;11.32;;;4.43;;
46941;SDS011;32676;52.630;4.896;2023-11-21T05:36:26;9.43;;;3.33;;
46941;SDS011;32676;52.630;4.896;2023-11-21T05:38:52;7.72;;;3.05;;
46941;SDS011;32676;52.630;4.896;2023-11-21T05:41:19;8.13;;;2.53;;
46941;SDS011;32676;52.630;4.896;2023-11-21T05:43:48;12.05;;;3.55;;
46941;SDS011;32676;52.630;4.896;2023-11-21T05:46:14;8.95;;;2.47;;
46941;SDS011;32676;52.630;4.896;2023-11-21T05:48:42;6.88;;;3.05;;
46941;SDS011;32676;52.630;4.896;2023-11-21T05:51:10;16.77;;;10.18;;
46941;SDS011;32676;52.630;4.896;2023-11-21T05:53:37;12.63;;;6.28;;
46941;SDS011;32676;52.630;4.896;2023-11-21T05:56:04;9.98;;;5.07;;
46941;SDS011;32676;52.630;4.896;2023-11-21T05:58:30;9.80;;;4.30;;
46941;SDS011;32676;52.630;4.896;2023-11-21T06:00:57;34.38;;;14.23;;
46941;SDS011;32676;52.630;4.896;2023-11-21T06:03:23;13.57;;;5.85;;
46941;SDS011;32676;52.630;4.896;2023-11-21T06:05:52;38.50;;;20.95;;
46941;SDS011;32676;52.630;4.896;2023-11-21T06:08:19;14.27;;;5.88;;
46941;SDS011;32676;52.630;4.896;2023-11-21T06:10:45;15.77;;;6.45;;
46941;SDS011;32676;52.630;4.896;2023-11-21T06:13:14;19.40;;;7.47;;
46941;SDS011;32676;52.630;4.896;2023-11-21T06:15:40;14.93;;;5.85;;
46941;SDS011;32676;52.630;4.896;2023-11-21T06:18:07;17.00;;;4.55;;
46941;SDS011;32676;52.630;4.896;2023-11-21T06:20:35;16.33;;;5.70;;
46941;SDS011;32676;52.630;4.896;2023-11-21T06:23:03;17.13;;;5.78;;
46941;SDS011;32676;52.630;4.896;2023-11-21T06:25:30;16.63;;;5.68;;
46941;SDS011;32676;52.630;4.896;2023-11-21T06:27:58;16.67;;;5.55;;
46941;SDS011;32676;52.630;4.896;2023-11-21T06:30:24;22.77;;;5.90;;
46941;SDS011;32676;52.630;4.896;2023-11-21T06:32:50;15.45;;;7.13;;
46941;SDS011;32676;52.630;4.896;2023-11-21T06:35:17;27.35;;;8.15;;
46941;SDS011;32676;52.630;4.896;2023-11-21T06:37:44;16.27;;;7.82;;
46941;SDS011;32676;52.630;4.896;2023-11-21T06:40:14;19.02;;;6.60;;
46941;SDS011;32676;52.630;4.896;2023-11-21T06:42:41;21.05;;;8.80;;
46941;SDS011;32676;52.630;4.896;2023-11-21T06:45:07;17.35;;;7.40;;
46941;SDS011;32676;52.630;4.896;2023-11-21T06:47:36;18.90;;;7.00;;
46941;SDS011;32676;52.630;4.896;2023-11-21T06:50:03;14.43;;;6.75;;
46941;SDS011;32676;52.630;4.896;2023-11-21T06:52:30;24.48;;;9.10;;
46941;SDS011;32676;52.630;4.896;2023-11-21T06:54:56;42.58;;;18.88;;
46941;SDS011;32676;52.630;4.896;2023-11-21T06:57:24;13.52;;;5.10;;
46941;SDS011;32676;52.630;4.896;2023-11-21T06:59:50;16.92;;;5.82;;
46941;SDS011;32676;52.630;4.896;2023-11-21T07:02:17;11.10;;;5.10;;
46941;SDS011;32676;52.630;4.896;2023-11-21T07:04:44;13.00;;;5.53;;
46941;SDS011;32676;52.630;4.896;2023-11-21T07:07:11;14.02;;;5.75;;
46941;SDS011;32676;52.630;4.896;2023-11-21T07:09:37;22.30;;;7.53;;
46941;SDS011;32676;52.630;4.896;2023-11-21T07:12:04;17.27;;;6.18;;
46941;SDS011;32676;52.630;4.896;2023-11-21T07:14:35;19.60;;;7.03;;
46941;SDS011;32676;52.630;4.896;2023-11-21T07:17:02;18.98;;;8.60;;
46941;SDS011;32676;52.630;4.896;2023-11-21T07:19:28;17.67;;;7.47;;
46941;SDS011;32676;52.630;4.896;2023-11-21T07:21:55;16.52;;;6.75;;
46941;SDS011;32676;52.630;4.896;2023-11-21T07:24:22;16.27;;;6.25;;
46941;SDS011;32676;52.630;4.896;2023-11-21T07:26:48;15.75;;;5.80;;
46941;SDS011;32676;52.630;4.896;2023-11-21T07:29:15;12.68;;;5.95;;
46941;SDS011;32676;52.630;4.896;2023-11-21T07:31:42;20.25;;;6.40;;
46941;SDS011;32676;52.630;4.896;2023-11-21T07:34:09;18.08;;;7.80;;
46941;SDS011;32676;52.630;4.896;2023-11-21T07:36:37;21.33;;;7.32;;
46941;SDS011;32676;52.630;4.896;2023-11-21T07:39:03;20.92;;;9.40;;
46941;SDS011;32676;52.630;4.896;2023-11-21T07:41:31;21.27;;;6.60;;
46941;SDS011;32676;52.630;4.896;2023-11-21T07:43:58;22.73;;;7.20;;
46941;SDS011;32676;52.630;4.896;2023-11-21T07:46:24;16.75;;;8.15;;
46941;SDS011;32676;52.630;4.896;2023-11-21T07:48:53;17.60;;;7.25;;
46941;SDS011;32676;52.630;4.896;2023-11-21T07:51:20;21.23;;;6.68;;
46941;SDS011;32676;52.630;4.896;2023-11-21T07:53:47;16.65;;;6.18;;
46941;SDS011;32676;52.630;4.896;2023-11-21T07:56:13;16.58;;;6.90;;
46941;SDS011;32676;52.630;4.896;2023-11-21T07:58:40;19.08;;;6.43;;
46941;SDS011;32676;52.630;4.896;2023-11-21T08:01:06;9.77;;;4.35;;
46941;SDS011;32676;52.630;4.896;2023-11-21T08:03:33;8.55;;;3.88;;
46941;SDS011;32676;52.630;4.896;2023-11-21T08:06:00;6.97;;;4.07;;
46941;SDS011;32676;52.630;4.896;2023-11-21T08:08:28;8.75;;;3.85;;
46941;SDS011;32676;52.630;4.896;2023-11-21T08:10:54;14.60;;;4.28;;
46941;SDS011;32676;52.630;4.896;2023-11-21T08:13:22;7.40;;;2.92;;
46941;SDS011;32676;52.630;4.896;2023-11-21T08:15:48;6.50;;;3.08;;
46941;SDS011;32676;52.630;4.896;2023-11-21T08:18:15;7.53;;;2.88;;
46941;SDS011;32676;52.630;4.896;2023-11-21T08:20:42;7.28;;;3.17;;
46941;SDS011;32676;52.630;4.896;2023-11-21T08:23:14;4.47;;;2.60;;
46941;SDS011;32676;52.630;4.896;2023-11-21T08:25:41;8.32;;;3.40;;
46941;SDS011;32676;52.630;4.896;2023-11-21T08:28:08;8.85;;;3.67;;
46941;SDS011;32676;52.630;4.896;2023-11-21T08:30:35;6.55;;;2.50;;
46941;SDS011;32676;52.630;4.896;2023-11-21T08:33:01;5.95;;;2.28;;
46941;SDS011;32676;52.630;4.896;2023-11-21T08:35:28;5.43;;;3.00;;
46941;SDS011;32676;52.630;4.896;2023-11-21T08:37:54;5.95;;;2.80;;
46941;SDS011;32676;52.630;4.896;2023-11-21T08:40:23;5.90;;;2.10;;
46941;SDS011;32676;52.630;4.896;2023-11-21T08:42:50;6.35;;;2.83;;
46941;SDS011;32676;52.630;4.896;2023-11-21T08:45:17;8.35;;;4.13;;
46941;SDS011;32676;52.630;4.896;2023-11-21T08:47:44;13.23;;;4.97;;
46941;SDS011;32676;52.630;4.896;2023-11-21T08:50:10;7.95;;;3.70;;
46941;SDS011;32676;52.630;4.896;2023-11-21T08:52:38;13.00;;;4.38;;
46941;SDS011;32676;52.630;4.896;2023-11-21T08:55:05;7.03;;;4.05;;
46941;SDS011;32676;52.630;4.896;2023-11-21T08:57:35;9.82;;;4.07;;
46941;SDS011;32676;52.630;4.896;2023-11-21T09:00:01;11.35;;;5.53;;
46941;SDS011;32676;52.630;4.896;2023-11-21T09:02:30;13.88;;;4.60;;
46941;SDS011;32676;52.630;4.896;2023-11-21T09:04:56;8.32;;;4.00;;
46941;SDS011;32676;52.630;4.896;2023-11-21T09:07:24;9.13;;;3.75;;
46941;SDS011;32676;52.630;4.896;2023-11-21T09:09:50;9.15;;;4.35;;
46941;SDS011;32676;52.630;4.896;2023-11-21T09:12:17;7.72;;;4.25;;
46941;SDS011;32676;52.630;4.896;2023-11-21T09:14:45;9.77;;;4.50;;
46941;SDS011;32676;52.630;4.896;2023-11-21T09:17:12;9.45;;;5.10;;
46941;SDS011;32676;52.630;4.896;2023-11-21T09:19:39;10.25;;;6.35;;
46941;SDS011;32676;52.630;4.896;2023-11-21T09:22:06;13.45;;;7.43;;
46941;SDS011;32676;52.630;4.896;2023-11-21T09:24:33;14.57;;;7.40;;
46941;SDS011;32676;52.630;4.896;2023-11-21T09:27:00;10.27;;;5.78;;
46941;SDS011;32676;52.630;4.896;2023-11-21T09:29:26;11.82;;;6.18;;
46941;SDS011;32676;52.630;4.896;2023-11-21T09:31:55;16.92;;;6.82;;
46941;SDS011;32676;52.630;4.896;2023-11-21T09:34:24;10.13;;;6.13;;
46941;SDS011;32676;52.630;4.896;2023-11-21T09:36:51;12.02;;;6.22;;
46941;SDS011;32676;52.630;4.896;2023-11-21T09:39:18;11.30;;;6.40;;
46941;SDS011;32676;52.630;4.896;2023-11-21T09:41:46;12.52;;;6.45;;
46941;SDS011;32676;52.630;4.896;2023-11-21T09:44:17;14.35;;;7.00;;
46941;SDS011;32676;52.630;4.896;2023-11-21T09:46:47;11.27;;;5.82;;
46941;SDS011;32676;52.630;4.896;2023-11-21T09:49:15;10.55;;;6.70;;
46941;SDS011;32676;52.630;4.896;2023-11-21T09:51:50;12.30;;;6.25;;
46941;SDS011;32676;52.630;4.896;2023-11-21T09:54:20;12.95;;;7.38;;
46941;SDS011;32676;52.630;4.896;2023-11-21T09:56:47;11.82;;;6.95;;
46941;SDS011;32676;52.630;4.896;2023-11-21T09:59:15;10.63;;;6.28;;
46941;SDS011;32676;52.630;4.896;2023-11-21T10:01:42;15.50;;;5.88;;
46941;SDS011;32676;52.630;4.896;2023-11-21T10:04:09;10.98;;;6.40;;
46941;SDS011;32676;52.630;4.896;2023-11-21T10:06:38;11.32;;;5.88;;
46941;SDS011;32676;52.630;4.896;2023-11-21T10:09:06;14.18;;;6.72;;
46941;SDS011;32676;52.630;4.896;2023-11-21T10:11:36;11.90;;;6.40;;
46941;SDS011;32676;52.630;4.896;2023-11-21T10:14:06;14.85;;;7.75;;
46941;SDS011;32676;52.630;4.896;2023-11-21T10:16:35;19.55;;;10.80;;
46941;SDS011;32676;52.630;4.896;2023-11-21T10:19:02;22.75;;;11.07;;
46941;SDS011;32676;52.630;4.896;2023-11-21T10:21:31;10.18;;;6.15;;
46941;SDS011;32676;52.630;4.896;2023-11-21T10:23:59;12.23;;;6.43;;
46941;SDS011;32676;52.630;4.896;2023-11-21T10:26:26;12.55;;;6.22;;
46941;SDS011;32676;52.630;4.896;2023-11-21T10:28:57;12.07;;;6.53;;
46941;SDS011;32676;52.630;4.896;2023-11-21T10:31:24;10.80;;;6.10;;
46941;SDS011;32676;52.630;4.896;2023-11-21T10:33:52;12.13;;;7.32;;
46941;SDS011;32676;52.630;4.896;2023-11-21T10:36:25;10.77;;;6.25;;
46941;SDS011;32676;52.630;4.896;2023-11-21T10:38:52;15.82;;;6.72;;
46941;SDS011;32676;52.630;4.896;2023-11-21T10:41:20;11.50;;;6.50;;
46941;SDS011;32676;52.630;4.896;2023-11-21T10:43:47;18.33;;;8.10;;
46941;SDS011;32676;52.630;4.896;2023-11-21T10:46:14;16.17;;;6.80;;
46941;SDS011;32676;52.630;4.896;2023-11-21T10:48:40;12.02;;;6.65;;
46941;SDS011;32676;52.630;4.896;2023-11-21T10:51:08;20.20;;;10.13;;
46941;SDS011;32676;52.630;4.896;2023-11-21T10:53:38;11.40;;;6.30;;
46941;SDS011;32676;52.630;4.896;2023-11-21T10:56:06;16.63;;;7.68;;
46941;SDS011;32676;52.630;4.896;2023-11-21T10:58:36;11.95;;;5.53;;
46941;SDS011;32676;52.630;4.896;2023-11-21T11:01:06;13.05;;;4.78;;
46941;SDS011;32676;52.630;4.896;2023-11-21T11:03:32;9.82;;;4.03;;
46941;SDS011;32676;52.630;4.896;2023-11-21T11:06:02;14.88;;;6.70;;
46941;SDS011;32676;52.630;4.896;2023-11-21T11:08:32;12.63;;;5.88;;
46941;SDS011;32676;52.630;4.896;2023-11-21T11:11:01;13.27;;;5.78;;
46941;SDS011;32676;52.630;4.896;2023-11-21T11:13:28;12.38;;;5.22;;
46941;SDS011;32676;52.630;4.896;2023-11-21T11:15:57;11.27;;;4.93;;
46941;SDS011;32676;52.630;4.896;2023-11-21T11:18:26;10.35;;;4.75;;
46941;SDS011;32676;52.630;4.896;2023-11-21T11:20:53;12.80;;;4.60;;
46941;SDS011;32676;52.630;4.896;2023-11-21T11:23:30;11.63;;;4.72;;
46941;SDS011;32676;52.630;4.896;2023-11-21T11:26:12;15.48;;;6.22;;
46941;SDS011;32676;52.630;4.896;2023-11-21T11:28:51;13.00;;;4.47;;
46941;SDS011;32676;52.630;4.896;2023-11-21T11:31:35;6.70;;;3.58;;
46941;SDS011;32676;52.630;4.896;2023-11-21T11:34:08;6.95;;;4.05;;
46941;SDS011;32676;52.630;4.896;2023-11-21T11:36:43;6.82;;;3.00;;
46941;SDS011;32676;52.630;4.896;2023-11-21T11:39:27;5.63;;;2.85;;
46941;SDS011;32676;52.630;4.896;2023-11-21T11:41:55;6.72;;;3.30;;
46941;SDS011;32676;52.630;4.896;2023-11-21T11:47:20;6.38;;;2.83;;
46941;SDS011;32676;52.630;4.896;2023-11-21T11:50:05;13.00;;;5.00;;
46941;SDS011;32676;52.630;4.896;2023-11-21T11:52:38;7.10;;;3.92;;
46941;SDS011;32676;52.630;4.896;2023-11-21T11:55:06;6.32;;;3.42;;
46941;SDS011;32676;52.630;4.896;2023-11-21T11:57:38;6.68;;;3.53;;
46941;SDS011;32676;52.630;4.896;2023-11-21T12:00:16;6.90;;;3.63;;
46941;SDS011;32676;52.630;4.896;2023-11-21T12:02:47;10.75;;;4.65;;
46941;SDS011;32676;52.630;4.896;2023-11-21T12:05:15;7.70;;;4.28;;
46941;SDS011;32676;52.630;4.896;2023-11-21T12:07:44;8.80;;;4.43;;
46941;SDS011;32676;52.630;4.896;2023-11-21T12:10:13;8.32;;;4.53;;
46941;SDS011;32676;52.630;4.896;2023-11-21T12:12:43;12.50;;;5.13;;
46941;SDS011;32676;52.630;4.896;2023-11-21T12:15:11;9.07;;;5.05;;
46941;SDS011;32676;52.630;4.896;2023-11-21T12:17:37;15.95;;;7.90;;
46941;SDS011;32676;52.630;4.896;2023-11-21T12:20:06;11.43;;;5.60;;
46941;SDS011;32676;52.630;4.896;2023-11-21T12:22:41;18.35;;;9.30;;
46941;SDS011;32676;52.630;4.896;2023-11-21T12:25:08;11.35;;;5.88;;
46941;SDS011;32676;52.630;4.896;2023-11-21T12:27:34;10.30;;;6.47;;
46941;SDS011;32676;52.630;4.896;2023-11-21T12:30:01;13.13;;;6.25;;
46941;SDS011;32676;52.630;4.896;2023-11-21T12:32:27;12.93;;;5.97;;
46941;SDS011;32676;52.630;4.896;2023-11-21T12:34:55;11.13;;;6.03;;
46941;SDS011;32676;52.630;4.896;2023-11-21T12:37:23;12.85;;;6.10;;
46941;SDS011;32676;52.630;4.896;2023-11-21T12:39:49;13.23;;;6.32;;
46941;SDS011;32676;52.630;4.896;2023-11-21T12:42:16;12.15;;;6.25;;
46941;SDS011;32676;52.630;4.896;2023-11-21T12:44:45;11.73;;;5.97;;
46941;SDS011;32676;52.630;4.896;2023-11-21T12:47:16;10.57;;;6.22;;
46941;SDS011;32676;52.630;4.896;2023-11-21T12:49:43;13.23;;;6.55;;
46941;SDS011;32676;52.630;4.896;2023-11-21T12:52:09;9.80;;;6.10;;
46941;SDS011;32676;52.630;4.896;2023-11-21T12:54:38;14.18;;;7.95;;
46941;SDS011;32676;52.630;4.896;2023-11-21T12:57:04;11.43;;;6.65;;
46941;SDS011;32676;52.630;4.896;2023-11-21T12:59:33;12.20;;;6.00;;
46941;SDS011;32676;52.630;4.896;2023-11-21T13:02:00;10.88;;;5.72;;
46941;SDS011;32676;52.630;4.896;2023-11-21T13:04:30;10.07;;;5.45;;
46941;SDS011;32676;52.630;4.896;2023-11-21T13:07:02;14.73;;;6.63;;
46941;SDS011;32676;52.630;4.896;2023-11-21T13:09:31;10.02;;;5.40;;
46941;SDS011;32676;52.630;4.896;2023-11-21T13:12:00;12.73;;;6.53;;
46941;SDS011;32676;52.630;4.896;2023-11-21T13:14:29;12.07;;;5.72;;
46941;SDS011;32676;52.630;4.896;2023-11-21T13:16:57;10.52;;;5.78;;
46941;SDS011;32676;52.630;4.896;2023-11-21T13:19:23;13.55;;;5.40;;
46941;SDS011;32676;52.630;4.896;2023-11-21T13:21:49;9.07;;;5.10;;
46941;SDS011;32676;52.630;4.896;2023-11-21T13:24:16;10.95;;;6.75;;
46941;SDS011;32676;52.630;4.896;2023-11-21T13:26:44;12.25;;;6.32;;
46941;SDS011;32676;52.630;4.896;2023-11-21T13:29:12;7.28;;;4.20;;
46941;SDS011;32676;52.630;4.896;2023-11-21T13:31:38;9.52;;;5.40;;
46941;SDS011;32676;52.630;4.896;2023-11-21T13:34:05;10.05;;;6.22;;
46941;SDS011;32676;52.630;4.896;2023-11-21T13:36:33;11.43;;;6.40;;
46941;SDS011;32676;52.630;4.896;2023-11-21T13:39:00;8.80;;;5.35;;
46941;SDS011;32676;52.630;4.896;2023-11-21T13:41:32;9.95;;;6.32;;
46941;SDS011;32676;52.630;4.896;2023-11-21T13:43:59;14.95;;;7.63;;
46941;SDS011;32676;52.630;4.896;2023-11-21T13:46:41;13.48;;;8.43;;
46941;SDS011;32676;52.630;4.896;2023-11-21T13:49:09;14.55;;;8.63;;
46941;SDS011;32676;52.630;4.896;2023-11-21T13:51:35;15.15;;;9.00;;
46941;SDS011;32676;52.630;4.896;2023-11-21T13:54:06;14.30;;;7.45;;
46941;SDS011;32676;52.630;4.896;2023-11-21T13:56:34;9.88;;;6.28;;
46941;SDS011;32676;52.630;4.896;2023-11-21T13:59:01;11.07;;;6.25;;
46941;SDS011;32676;52.630;4.896;2023-11-21T14:01:39;10.57;;;6.53;;
46941;SDS011;32676;52.630;4.896;2023-11-21T14:04:19;9.40;;;5.28;;
46941;SDS011;32676;52.630;4.896;2023-11-21T14:07:00;9.98;;;5.60;;
46941;SDS011;32676;52.630;4.896;2023-11-21T14:09:45;10.68;;;6.25;;
46941;SDS011;32676;52.630;4.896;2023-11-21T14:12:14;12.40;;;6.28;;
46941;SDS011;32676;52.630;4.896;2023-11-21T14:14:41;14.18;;;8.52;;
46941;SDS011;32676;52.630;4.896;2023-11-21T14:17:10;13.35;;;5.50;;
46941;SDS011;32676;52.630;4.896;2023-11-21T14:19:37;7.95;;;5.25;;
46941;SDS011;32676;52.630;4.896;2023-11-21T14:22:06;16.40;;;6.95;;
46941;SDS011;32676;52.630;4.896;2023-11-21T14:24:34;9.40;;;5.30;;
46941;SDS011;32676;52.630;4.896;2023-11-21T14:27:01;9.43;;;5.82;;
46941;SDS011;32676;52.630;4.896;2023-11-21T14:29:28;10.70;;;6.20;;
46941;SDS011;32676;52.630;4.896;2023-11-21T14:31:56;8.35;;;5.20;;
46941;SDS011;32676;52.630;4.896;2023-11-21T14:34:24;9.23;;;5.40;;
46941;SDS011;32676;52.630;4.896;2023-11-21T14:36:51;9.57;;;5.68;;
46941;SDS011;32676;52.630;4.896;2023-11-21T14:39:18;14.73;;;5.97;;
46941;SDS011;32676;52.630;4.896;2023-11-21T14:41:48;6.80;;;4.35;;
46941;SDS011;32676;52.630;4.896;2023-11-21T14:44:15;24.35;;;10.43;;